createdAt,value
2023-01-23T00:00:47.072Z,-15.32
2023-01-23T00:03:13.612Z,-15.43
2023-01-23T00:05:40.052Z,-15.40
2023-01-23T00:08:06.555Z,-15.95
2023-01-23T00:10:33.020Z,-15.86
2023-01-23T00:13:01.610Z,-15.32
2023-01-23T00:15:28.196Z,-15.10
2023-01-23T00:17:56.726Z,-14.76
2023-01-23T00:20:23.215Z,-15.23
2023-01-23T00:22:51.659Z,-14.76
2023-01-23T00:25:18.113Z,-14.47
2023-01-23T00:27:45.247Z,-14.50
2023-01-23T00:30:14.508Z,-14.41
2023-01-23T00:32:41.195Z,-14.44
2023-01-23T00:35:07.815Z,-14.33
2023-01-23T00:37:36.605Z,-14.26
2023-01-23T00:40:05.494Z,-14.33
2023-01-23T00:42:33.900Z,-14.46
2023-01-23T00:45:00.364Z,-15.07
2023-01-23T00:47:26.881Z,-14.78
2023-01-23T00:49:57.673Z,-14.45
2023-01-23T00:52:24.639Z,-14.30
2023-01-23T00:54:53.121Z,-14.37
2023-01-23T00:57:21.886Z,-14.68
2023-01-23T00:59:48.421Z,-14.13
2023-01-23T01:02:14.895Z,-13.87
2023-01-23T01:04:41.348Z,-14.00
2023-01-23T01:07:07.842Z,-14.22
2023-01-23T01:09:34.306Z,-14.26
2023-01-23T01:12:00.813Z,-14.01
2023-01-23T01:14:27.291Z,-13.79
2023-01-23T01:16:53.777Z,-13.59
2023-01-23T01:19:22.287Z,-13.75
2023-01-23T01:21:50.616Z,-13.58
2023-01-23T01:24:19.296Z,-13.45
2023-01-23T01:26:47.663Z,-13.54
2023-01-23T01:29:15.806Z,-13.83
2023-01-23T01:31:42.291Z,-13.54
2023-01-23T01:34:09.652Z,-13.47
2023-01-23T01:36:36.119Z,-13.40
2023-01-23T01:39:02.625Z,-13.78
2023-01-23T01:41:29.091Z,-14.02
2023-01-23T01:43:57.213Z,-13.95
2023-01-23T01:46:25.158Z,-13.70
2023-01-23T01:49:00.992Z,-13.63
2023-01-23T01:51:27.469Z,-13.29
2023-01-23T01:54:01.957Z,-13.13
2023-01-23T01:56:30.180Z,-13.18
2023-01-23T01:58:57.089Z,-13.27
2023-01-23T02:01:23.635Z,-13.58
2023-01-23T02:03:51.354Z,-13.82
2023-01-23T02:06:18.113Z,-14.05
2023-01-23T02:08:59.459Z,-13.81
2023-01-23T02:11:25.895Z,-13.55
2023-01-23T02:13:55.343Z,-13.38
2023-01-23T02:16:23.505Z,-13.00
2023-01-23T02:18:53.934Z,-12.78
2023-01-23T02:21:24.992Z,-12.68
2023-01-23T02:24:03.991Z,-12.50
2023-01-23T02:26:44.128Z,-12.94
2023-01-23T02:29:12.449Z,-13.13
2023-01-23T02:31:39.304Z,-13.13
2023-01-23T02:34:05.959Z,-13.09
2023-01-23T02:36:33.775Z,-12.77
2023-01-23T02:39:00.672Z,-12.62
2023-01-23T02:41:46.410Z,-12.55
2023-01-23T02:44:16.567Z,-12.61
2023-01-23T02:46:43.059Z,-12.62
2023-01-23T02:49:09.842Z,-12.85
2023-01-23T02:51:36.393Z,-12.59
2023-01-23T02:54:02.916Z,-12.73
2023-01-23T02:56:29.423Z,-13.44
2023-01-23T02:59:14.736Z,-13.65
2023-01-23T03:01:41.193Z,-14.33
2023-01-23T03:04:07.760Z,-14.36
2023-01-23T03:06:38.326Z,-14.40
2023-01-23T03:09:05.728Z,-14.28
2023-01-23T03:11:32.621Z,-14.24
2023-01-23T03:13:59.261Z,-14.74
2023-01-23T03:16:27.595Z,-14.61
2023-01-23T03:18:56.423Z,-14.26
2023-01-23T03:21:23.115Z,-14.47
2023-01-23T03:23:49.670Z,-14.39
2023-01-23T03:26:18.005Z,-13.95
2023-01-23T03:29:03.381Z,-13.70
2023-01-23T03:31:30.534Z,-13.89
2023-01-23T03:33:57.068Z,-13.59
2023-01-23T03:36:23.656Z,-13.15
2023-01-23T03:39:08.532Z,-12.99
2023-01-23T03:41:35.025Z,-13.27
2023-01-23T03:44:01.568Z,-13.28
2023-01-23T03:46:28.095Z,-13.39
2023-01-23T03:48:54.596Z,-13.31
2023-01-23T03:51:21.120Z,-13.08
2023-01-23T03:53:47.656Z,-12.80
2023-01-23T03:56:14.161Z,-13.22
2023-01-23T03:58:40.846Z,-13.66
2023-01-23T04:01:09.144Z,-13.25
2023-01-23T04:03:36.131Z,-13.30
2023-01-23T04:06:02.651Z,-13.19
2023-01-23T04:08:29.729Z,-12.83
2023-01-23T04:11:03.487Z,-12.75
2023-01-23T04:13:30.039Z,-13.06
2023-01-23T04:15:56.560Z,-13.85
2023-01-23T04:18:23.497Z,-13.53
2023-01-23T04:20:50.073Z,-14.21
2023-01-23T04:23:16.601Z,-13.77
2023-01-23T04:25:43.079Z,-13.37
2023-01-23T04:28:09.635Z,-13.33
2023-01-23T04:30:36.913Z,-14.50
2023-01-23T04:33:03.448Z,-14.75
2023-01-23T04:35:30.081Z,-14.77
2023-01-23T04:37:56.604Z,-15.36
2023-01-23T04:40:23.136Z,-15.43
2023-01-23T04:42:49.591Z,-14.86
2023-01-23T04:45:16.166Z,-14.66
2023-01-23T04:47:42.620Z,-14.55
2023-01-23T04:50:09.592Z,-14.38
2023-01-23T04:52:38.272Z,-14.30
2023-01-23T04:55:05.840Z,-14.32
2023-01-23T04:57:32.450Z,-13.85
2023-01-23T05:00:00.414Z,-14.35
2023-01-23T05:02:27.308Z,-14.34
2023-01-23T05:04:53.779Z,-14.18
2023-01-23T05:07:20.283Z,-14.26
2023-01-23T05:09:46.754Z,-13.99
2023-01-23T05:12:13.304Z,-13.89
2023-01-23T05:14:39.878Z,-13.77
2023-01-23T05:17:06.322Z,-13.54
2023-01-23T05:19:32.919Z,-13.37
2023-01-23T05:21:59.395Z,-13.22
2023-01-23T05:24:25.864Z,-12.82
2023-01-23T05:26:54.589Z,-12.44
2023-01-23T05:29:21.860Z,-12.30
2023-01-23T05:31:49.052Z,-12.13
2023-01-23T05:34:15.577Z,-12.06
2023-01-23T05:36:42.073Z,-11.83
2023-01-23T05:39:08.515Z,-11.63
2023-01-23T05:41:35.023Z,-11.61
2023-01-23T05:44:01.484Z,-12.09
2023-01-23T05:46:28.004Z,-11.88
2023-01-23T05:48:54.535Z,-11.71
2023-01-23T05:51:21.195Z,-11.62
2023-01-23T05:53:49.551Z,-11.67
2023-01-23T05:56:16.003Z,-11.52
2023-01-23T05:58:42.552Z,-11.41
2023-01-23T06:01:09.023Z,-11.36
2023-01-23T06:03:35.524Z,-11.27
2023-01-23T06:06:02.309Z,-11.33
2023-01-23T06:08:28.780Z,-11.24
2023-01-23T06:10:58.514Z,-11.11
2023-01-23T06:13:26.076Z,-11.19
2023-01-23T06:15:53.013Z,-11.19
2023-01-23T06:18:19.909Z,-11.15
2023-01-23T06:20:46.924Z,-11.29
2023-01-23T06:23:13.871Z,-11.24
2023-01-23T06:25:40.934Z,-11.35
2023-01-23T06:28:08.216Z,-11.06
2023-01-23T06:30:34.750Z,-10.82
2023-01-23T06:33:01.356Z,-10.57
2023-01-23T06:35:27.798Z,-10.52
2023-01-23T06:37:59.231Z,-10.80
2023-01-23T06:40:25.864Z,-10.72
2023-01-23T06:42:54.825Z,-10.50
2023-01-23T06:45:22.502Z,-10.56
2023-01-23T06:47:49.055Z,-10.58
2023-01-23T06:50:16.400Z,-10.40
2023-01-23T06:52:45.001Z,-10.28
2023-01-23T06:55:13.191Z,-10.17
2023-01-23T06:57:40.995Z,-10.09
2023-01-23T07:00:07.915Z,-10.03
2023-01-23T07:02:34.402Z,-9.89
2023-01-23T07:05:00.897Z,-9.79
2023-01-23T07:07:27.421Z,-9.72
2023-01-23T07:09:53.883Z,-9.60
2023-01-23T07:12:20.360Z,-9.63
2023-01-23T07:14:46.822Z,-9.57
2023-01-23T07:17:13.306Z,-9.47
2023-01-23T07:19:39.799Z,-9.33
2023-01-23T07:22:06.308Z,-9.33
2023-01-23T07:24:34.882Z,-9.25
2023-01-23T07:27:03.367Z,-9.21
2023-01-23T07:29:32.264Z,-9.22
2023-01-23T07:32:01.082Z,-9.16
2023-01-23T07:34:28.054Z,-9.22
2023-01-23T07:36:54.540Z,-9.27
2023-01-23T07:39:21.036Z,-9.20
2023-01-23T07:41:47.530Z,-9.24
2023-01-23T07:44:18.121Z,-9.21
2023-01-23T07:46:47.868Z,-9.25
2023-01-23T07:49:14.887Z,-9.19
2023-01-23T07:51:43.468Z,-9.11
2023-01-23T07:54:10.259Z,-8.98
2023-01-23T07:56:36.746Z,-8.85
2023-01-23T07:59:05.479Z,-8.74
2023-01-23T08:01:32.035Z,-8.75
2023-01-23T08:03:58.612Z,-8.64
2023-01-23T08:06:25.089Z,-8.60
2023-01-23T08:08:51.655Z,-8.51
2023-01-23T08:11:18.119Z,-8.43
2023-01-23T08:13:48.333Z,-8.37
2023-01-23T08:16:14.852Z,-8.30
2023-01-23T08:18:41.312Z,-8.33
2023-01-23T08:21:07.802Z,-8.29
2023-01-23T08:23:34.545Z,-8.24
2023-01-23T08:26:04.068Z,-8.20
2023-01-23T08:28:31.405Z,-8.11
2023-01-23T08:31:06.543Z,-8.05
2023-01-23T08:33:34.268Z,-7.94
2023-01-23T08:36:01.053Z,-7.91
2023-01-23T08:38:27.578Z,-7.91
2023-01-23T08:40:55.359Z,-7.97
2023-01-23T08:43:22.050Z,-7.91
2023-01-23T08:45:50.226Z,-7.85
2023-01-23T08:48:17.803Z,-7.77
2023-01-23T08:50:44.745Z,-7.72
2023-01-23T08:53:12.006Z,-7.62
2023-01-23T08:55:39.095Z,-7.54
2023-01-23T08:58:06.431Z,-7.44
2023-01-23T09:00:33.236Z,-7.41
2023-01-23T09:03:00.922Z,-7.27
2023-01-23T09:05:27.684Z,-7.15
2023-01-23T09:07:54.205Z,-7.03
2023-01-23T09:10:20.804Z,-6.98
2023-01-23T09:12:47.506Z,-6.94
2023-01-23T09:15:13.982Z,-6.87
2023-01-23T09:17:40.918Z,-6.78
2023-01-23T09:20:07.873Z,-6.69
2023-01-23T09:22:34.346Z,-6.62
2023-01-23T09:25:03.032Z,-6.54
2023-01-23T09:27:30.312Z,-6.50
2023-01-23T09:29:57.680Z,-6.45
2023-01-23T09:32:24.152Z,-6.42
2023-01-23T09:34:50.723Z,-6.35
2023-01-23T09:37:19.392Z,-6.29
2023-01-23T09:39:45.997Z,-6.20
2023-01-23T09:42:17.946Z,-6.16
2023-01-23T09:44:49.083Z,-6.13
2023-01-23T09:47:18.432Z,-6.08
2023-01-23T09:49:58.361Z,-6.01
2023-01-23T09:52:30.922Z,-5.88
2023-01-23T09:55:05.627Z,-5.81
2023-01-23T09:57:38.859Z,-5.76
2023-01-23T10:00:06.728Z,-5.65
2023-01-23T10:02:34.151Z,-5.62
2023-01-23T10:05:02.969Z,-5.56
2023-01-23T10:07:38.643Z,-5.69
2023-01-23T10:10:08.134Z,-5.70
2023-01-23T10:12:40.869Z,-5.54
2023-01-23T10:15:07.421Z,-5.59
2023-01-23T10:17:41.308Z,-5.46
2023-01-23T10:20:13.625Z,-5.45
2023-01-23T10:22:47.342Z,-5.51
2023-01-23T10:25:25.600Z,-5.37
2023-01-23T10:27:56.423Z,-5.28
2023-01-23T10:30:24.155Z,-5.29
2023-01-23T10:33:00.169Z,-5.14
2023-01-23T10:35:47.280Z,-5.05
2023-01-23T10:38:16.785Z,-5.17
2023-01-23T10:41:02.183Z,-5.01
2023-01-23T10:43:28.681Z,-4.95
2023-01-23T10:45:55.184Z,-4.97
2023-01-23T10:48:28.732Z,-4.83
2023-01-23T10:50:58.677Z,-4.82
2023-01-23T10:53:27.116Z,-4.84
2023-01-23T10:55:55.737Z,-4.74
2023-01-23T10:58:25.289Z,-4.69
2023-01-23T11:00:53.957Z,-4.74
2023-01-23T11:03:20.380Z,-4.64
2023-01-23T11:06:07.220Z,-4.59
2023-01-23T11:08:38.198Z,-4.60
2023-01-23T11:11:18.858Z,-4.41
2023-01-23T11:13:49.999Z,-4.32
2023-01-23T11:16:18.237Z,-4.22
2023-01-23T11:18:55.253Z,-4.11
2023-01-23T11:21:23.239Z,-4.05
2023-01-23T11:24:09.067Z,-3.99
2023-01-23T11:26:36.744Z,-3.92
2023-01-23T11:29:18.983Z,-3.87
2023-01-23T11:31:46.782Z,-3.84
2023-01-23T11:34:14.878Z,-3.76
2023-01-23T11:36:46.193Z,-3.70
2023-01-23T11:39:19.312Z,-3.67
2023-01-23T11:41:46.297Z,-3.65
2023-01-23T11:44:22.690Z,-3.66
2023-01-23T11:46:49.933Z,-3.64
2023-01-23T11:49:28.372Z,-3.59
2023-01-23T11:52:17.784Z,-3.54
2023-01-23T11:55:02.888Z,-3.44
2023-01-23T11:57:29.359Z,-3.39
2023-01-23T11:59:58.853Z,-3.36
2023-01-23T12:02:31.561Z,-3.26
2023-01-23T12:05:00.815Z,-3.24
2023-01-23T12:07:27.632Z,-3.21
2023-01-23T12:09:57.083Z,-3.13
2023-01-23T12:12:29.563Z,-3.07
2023-01-23T12:15:05.593Z,-3.07
2023-01-23T12:17:40.909Z,-3.02
2023-01-23T12:20:47.548Z,-2.94
2023-01-23T12:23:14.067Z,-2.83
2023-01-23T12:25:42.613Z,-2.81
2023-01-23T12:28:20.217Z,-2.82
2023-01-23T12:30:50.297Z,-2.74
2023-01-23T12:33:19.544Z,-2.68
2023-01-23T12:36:00.789Z,-2.68
2023-01-23T12:38:46.043Z,-2.70
2023-01-23T12:41:15.313Z,-2.66
2023-01-23T12:43:55.756Z,-2.60
2023-01-23T12:46:30.511Z,-2.56
2023-01-23T12:49:00.023Z,-2.55
2023-01-23T12:51:34.575Z,-2.56
2023-01-23T12:54:04.481Z,-2.50
2023-01-23T12:56:33.668Z,-2.49
2023-01-23T12:59:10.586Z,-2.50
2023-01-23T13:01:50.007Z,-2.72
2023-01-23T13:04:28.805Z,-2.84
2023-01-23T13:06:55.753Z,-2.65
2023-01-23T13:09:31.492Z,-2.76
2023-01-23T13:12:04.057Z,-2.72
2023-01-23T13:14:36.821Z,-2.64
2023-01-23T13:17:32.985Z,-2.78
2023-01-23T13:20:37.258Z,-2.64
2023-01-23T13:23:22.631Z,-2.75
2023-01-23T13:25:49.649Z,-2.79
2023-01-23T13:28:27.707Z,-2.68
2023-01-23T13:31:00.351Z,-2.80
2023-01-23T13:33:29.846Z,-2.69
2023-01-23T13:35:58.695Z,-2.63
2023-01-23T13:38:33.389Z,-2.75
2023-01-23T13:41:05.836Z,-2.64
2023-01-23T13:43:41.988Z,-2.64
2023-01-23T13:46:31.716Z,-2.74
2023-01-23T14:21:41.203Z,-2.44
2023-01-23T14:24:21.305Z,-2.51
2023-01-23T14:26:51.692Z,-2.45
2023-01-23T14:29:19.171Z,-2.42
2023-01-23T14:31:47.392Z,-2.49
2023-01-23T14:34:24.348Z,-2.38
2023-01-23T14:37:02.662Z,-2.34
2023-01-23T14:39:30.492Z,-2.46
2023-01-23T14:42:01.998Z,-2.36
2023-01-23T14:44:39.130Z,-2.34
2023-01-23T14:47:05.768Z,-2.42
2023-01-23T14:49:36.474Z,-2.33
2023-01-23T14:52:04.734Z,-2.30
2023-01-23T14:54:33.350Z,-2.39
2023-01-23T14:57:08.150Z,-2.36
2023-01-23T14:59:38.383Z,-2.23
2023-01-23T15:02:26.406Z,-2.36
2023-01-23T15:05:11.495Z,-2.41
2023-01-23T15:07:44.761Z,-2.43
2023-01-23T15:10:18.661Z,-2.41
2023-01-23T15:12:50.164Z,-2.39
2023-01-23T15:15:21.620Z,-2.40
2023-01-23T15:17:48.713Z,-2.37
2023-01-23T15:20:36.520Z,-2.39
2023-01-23T15:23:18.072Z,-2.39
2023-01-23T15:25:47.743Z,-2.44
2023-01-23T15:28:32.521Z,-2.41
2023-01-23T15:30:59.870Z,-2.37
2023-01-23T15:33:28.927Z,-2.38
2023-01-23T15:36:02.306Z,-2.35
2023-01-23T15:38:29.023Z,-2.35
2023-01-23T15:40:55.517Z,-2.35
2023-01-23T15:43:22.073Z,-2.20
2023-01-23T15:45:48.723Z,-2.22
2023-01-23T15:48:15.191Z,-2.25
2023-01-23T15:50:41.769Z,-2.28
2023-01-23T15:53:12.499Z,-2.30
2023-01-23T15:55:39.559Z,-2.30
2023-01-23T15:58:06.109Z,-2.29
2023-01-23T16:00:32.671Z,-2.28
2023-01-23T16:02:59.595Z,-2.07
2023-01-23T16:05:32.240Z,-2.12
2023-01-23T16:08:01.211Z,-2.15
2023-01-23T16:10:35.685Z,-2.15
2023-01-23T16:13:02.698Z,-2.14
2023-01-23T16:15:30.504Z,-2.18
2023-01-23T16:17:57.253Z,-2.18
2023-01-23T16:20:26.852Z,-2.17
2023-01-23T16:22:56.029Z,-2.14
2023-01-23T16:25:43.362Z,-1.99
2023-01-23T16:28:14.176Z,-2.03
2023-01-23T16:30:40.878Z,-2.07
2023-01-23T16:33:07.685Z,-2.08
2023-01-23T16:35:34.609Z,-2.08
2023-01-23T16:38:01.331Z,-2.06
2023-01-23T16:40:30.553Z,-2.07
2023-01-23T16:42:57.072Z,-2.04
2023-01-23T16:45:25.127Z,-1.93
2023-01-23T16:47:51.679Z,-1.89
2023-01-23T16:50:22.007Z,-1.97
2023-01-23T16:53:01.265Z,-1.99
2023-01-23T16:55:30.654Z,-1.99
2023-01-23T16:57:58.351Z,-1.99
2023-01-23T17:00:33.600Z,-1.97
2023-01-23T17:03:04.022Z,-1.94
2023-01-23T17:05:33.384Z,-1.94
2023-01-23T17:08:01.963Z,-1.93
2023-01-23T17:10:41.222Z,-1.91
2023-01-23T17:13:13.600Z,-1.90
2023-01-23T17:15:40.326Z,-1.87
2023-01-23T17:18:06.898Z,-1.74
2023-01-23T17:20:33.384Z,-1.62
2023-01-23T17:23:01.868Z,-1.68
2023-01-23T17:25:28.408Z,-1.73
2023-01-23T17:28:11.873Z,-1.76
2023-01-23T17:30:40.359Z,-1.69
2023-01-23T17:33:13.840Z,-1.68
2023-01-23T17:35:40.297Z,-1.68
2023-01-23T17:38:13.018Z,-1.67
2023-01-23T17:40:40.667Z,-1.69
2023-01-23T17:43:07.151Z,-1.65
2023-01-23T17:45:33.752Z,-1.61
2023-01-23T17:48:01.446Z,-1.54
2023-01-23T17:50:27.888Z,-1.47
2023-01-23T17:52:56.787Z,-1.50
2023-01-23T17:55:25.484Z,-1.50
2023-01-23T17:57:51.959Z,-1.48
2023-01-23T18:00:19.760Z,-1.46
2023-01-23T18:02:48.462Z,-1.39
2023-01-23T18:05:15.301Z,-1.35
2023-01-23T18:07:53.457Z,-1.39
2023-01-23T18:10:22.091Z,-1.33
2023-01-23T18:12:48.749Z,-1.29
2023-01-23T18:15:19.853Z,-1.20
2023-01-23T18:17:56.627Z,-1.13
2023-01-23T18:20:23.350Z,-1.18
2023-01-23T18:22:50.021Z,-1.12
2023-01-23T18:25:17.275Z,-1.06
2023-01-23T18:27:46.412Z,-1.06
2023-01-23T18:30:19.640Z,-0.99
2023-01-23T18:32:48.984Z,-0.92
2023-01-23T18:35:24.590Z,-0.91
2023-01-23T18:38:00.827Z,-0.83
2023-01-23T18:40:29.376Z,-0.75
2023-01-23T18:42:59.404Z,-0.70
2023-01-23T18:45:27.571Z,-0.67
2023-01-23T18:47:54.663Z,-0.86
2023-01-23T18:50:25.376Z,-0.96
2023-01-23T18:52:57.813Z,-0.95
2023-01-23T18:55:27.144Z,-0.74
2023-01-23T18:58:18.299Z,-0.80
2023-01-23T19:00:49.284Z,-0.89
2023-01-23T19:03:17.233Z,-0.75
2023-01-23T19:05:44.453Z,-0.70
2023-01-23T19:08:20.489Z,-0.77
2023-01-23T19:10:49.222Z,-0.81
2023-01-23T19:13:18.681Z,-0.81
2023-01-23T19:15:54.686Z,-0.81
2023-01-23T19:18:40.498Z,-0.84
2023-01-23T19:21:26.823Z,-0.84
2023-01-23T19:23:56.262Z,-0.82
2023-01-23T19:26:25.373Z,-0.66
2023-01-23T19:28:51.980Z,-0.78
2023-01-23T19:31:23.962Z,-0.83
2023-01-23T19:33:52.775Z,-0.83
2023-01-23T19:36:21.193Z,-0.86
2023-01-23T19:38:47.872Z,-0.84
2023-01-23T19:41:21.512Z,-0.83
2023-01-23T19:43:48.739Z,-0.81
2023-01-23T19:46:15.350Z,-0.79
2023-01-23T19:48:41.904Z,-0.80
2023-01-23T19:51:18.264Z,-0.78
2023-01-23T19:53:45.445Z,-0.71
2023-01-23T19:56:13.043Z,-0.60
2023-01-23T19:58:39.955Z,-0.42
2023-01-23T20:01:14.443Z,-0.53
2023-01-23T20:03:41.162Z,-0.56
2023-01-23T20:06:07.818Z,-0.56
2023-01-23T20:08:34.281Z,-0.52
2023-01-23T20:11:00.767Z,-0.46
2023-01-23T20:13:27.275Z,-0.46
2023-01-23T20:15:53.765Z,-0.28
2023-01-23T20:18:22.447Z,-0.30
2023-01-23T20:20:48.915Z,-0.40
2023-01-23T20:23:15.405Z,-0.46
2023-01-23T20:25:41.864Z,-0.43
2023-01-23T20:28:11.249Z,-0.33
2023-01-23T20:30:38.365Z,-0.27
2023-01-23T20:33:06.675Z,-0.24
2023-01-23T20:35:33.162Z,-0.12
2023-01-23T20:37:59.709Z,-0.12
2023-01-23T20:40:27.548Z,-0.17
2023-01-23T20:42:54.012Z,-0.20
2023-01-23T20:45:20.751Z,-0.24
2023-01-23T20:47:47.364Z,-0.26
2023-01-23T20:50:13.812Z,-0.23
2023-01-23T20:53:01.035Z,-0.20
2023-01-23T20:55:29.342Z,-0.23
2023-01-23T20:58:14.388Z,-0.12
2023-01-23T21:00:42.939Z,-0.11
2023-01-23T21:03:09.482Z,-0.21
2023-01-23T21:05:35.981Z,-0.20
2023-01-23T21:08:02.484Z,-0.16
2023-01-23T21:10:28.962Z,-0.19
2023-01-23T21:12:55.438Z,-0.20
2023-01-23T21:15:22.245Z,-0.03
2023-01-23T21:17:48.952Z,-0.09
2023-01-23T21:20:15.763Z,-0.14
2023-01-23T21:22:42.234Z,-0.13
2023-01-23T21:25:08.747Z,-0.15
2023-01-23T21:27:36.120Z,-0.17
2023-01-23T21:30:04.045Z,-0.18
2023-01-23T21:32:30.576Z,-0.18
2023-01-23T21:34:57.099Z,-0.14
2023-01-23T21:37:24.468Z,0.06
2023-01-23T21:39:51.489Z,0.00
2023-01-23T21:42:17.932Z,-0.06
2023-01-23T21:44:44.474Z,-0.09
2023-01-23T21:47:10.963Z,-0.08
2023-01-23T21:49:37.469Z,-0.06
2023-01-23T21:52:04.074Z,0.00
2023-01-23T21:54:30.554Z,-0.02
2023-01-23T21:56:57.085Z,0.05
2023-01-23T21:59:23.656Z,0.13
2023-01-23T22:01:52.125Z,0.09
2023-01-23T22:04:22.533Z,0.07
2023-01-23T22:06:52.901Z,0.07
2023-01-23T22:09:21.435Z,0.06
2023-01-23T22:11:48.619Z,0.08
2023-01-23T22:14:16.249Z,0.19
2023-01-23T22:16:48.933Z,0.16
2023-01-23T22:19:16.965Z,0.29
2023-01-23T22:21:44.382Z,0.33
2023-01-23T22:24:10.913Z,0.26
2023-01-23T22:26:37.424Z,0.25
2023-01-23T22:29:04.614Z,0.28
2023-01-23T22:31:31.899Z,0.27
2023-01-23T22:33:58.516Z,0.27
2023-01-23T22:36:25.016Z,0.30
2023-01-23T22:38:52.176Z,0.41
2023-01-23T22:41:19.018Z,0.51
2023-01-23T22:43:45.465Z,0.45
2023-01-23T22:46:17.698Z,0.39
2023-01-23T22:48:44.144Z,0.45
2023-01-23T22:51:20.085Z,0.46
2023-01-23T22:53:48.470Z,0.41
2023-01-23T22:56:15.429Z,0.47
2023-01-23T22:58:51.033Z,0.46
2023-01-23T23:01:18.012Z,0.56
2023-01-23T23:03:45.135Z,0.64
2023-01-23T23:06:13.449Z,0.64
2023-01-23T23:08:40.640Z,0.62
2023-01-23T23:11:12.294Z,0.66
2023-01-23T23:13:39.734Z,0.72
2023-01-23T23:16:08.067Z,0.71
2023-01-23T23:18:34.886Z,0.73
2023-01-23T23:21:03.264Z,0.74
2023-01-23T23:23:29.797Z,0.81
2023-01-23T23:25:56.752Z,0.88
2023-01-23T23:28:24.135Z,0.92
2023-01-23T23:30:51.145Z,0.94
2023-01-23T23:33:18.025Z,0.90
2023-01-23T23:35:44.944Z,0.87
2023-01-23T23:38:11.891Z,0.91
2023-01-23T23:40:39.076Z,0.98
2023-01-23T23:43:06.008Z,0.84
2023-01-23T23:45:32.538Z,0.57
2023-01-23T23:47:59.203Z,0.55
2023-01-23T23:50:25.677Z,0.68
2023-01-23T23:52:52.111Z,0.78
2023-01-23T23:55:18.948Z,0.61
2023-01-23T23:57:45.598Z,0.56
